createdAt,value
2019-02-23T00:00:56.968Z,34.50
2019-02-23T00:03:43.320Z,34.60
2019-02-23T00:06:30.315Z,34.60
2019-02-23T00:09:16.963Z,34.60
2019-02-23T00:12:04.626Z,34.70
2019-02-23T00:14:51.355Z,34.50
2019-02-23T00:17:37.611Z,34.60
2019-02-23T00:20:23.860Z,34.70
2019-02-23T00:23:10.111Z,34.60
2019-02-23T00:25:55.934Z,34.70
2019-02-23T00:28:42.255Z,34.70
2019-02-23T00:31:28.158Z,34.70
2019-02-23T00:34:15.334Z,34.70
2019-02-23T00:37:01.927Z,34.70
2019-02-23T00:39:48.454Z,34.70
2019-02-23T00:42:34.723Z,34.90
2019-02-23T00:45:21.036Z,34.80
2019-02-23T00:48:07.415Z,34.90
2019-02-23T00:50:53.634Z,34.90
2019-02-23T00:53:40.393Z,34.90
2019-02-23T00:56:26.740Z,34.80
2019-02-23T00:59:12.610Z,34.90
2019-02-23T01:01:59.141Z,34.90
2019-02-23T01:04:45.387Z,34.90
2019-02-23T01:07:31.646Z,34.90
2019-02-23T01:10:19.543Z,34.80
2019-02-23T01:13:06.080Z,34.80
2019-02-23T01:15:52.400Z,34.80
2019-02-23T01:18:38.340Z,34.80
2019-02-23T01:21:24.183Z,34.80
2019-02-23T01:24:10.587Z,34.80
2019-02-23T01:26:57.559Z,34.80
2019-02-23T01:29:43.269Z,34.80
2019-02-23T01:32:29.760Z,34.70
2019-02-23T01:35:16.179Z,34.70
2019-02-23T01:38:02.524Z,34.80
2019-02-23T01:40:48.821Z,34.70
2019-02-23T01:43:35.527Z,34.80
2019-02-23T01:46:21.709Z,34.70
2019-02-23T01:49:08.097Z,34.70
2019-02-23T01:51:54.544Z,34.70
2019-02-23T01:54:40.323Z,34.70
2019-02-23T01:57:26.299Z,34.80
2019-02-23T02:00:13.591Z,34.70
2019-02-23T02:02:59.515Z,34.70
2019-02-23T02:05:45.629Z,34.70
2019-02-23T02:08:32.123Z,34.70
2019-02-23T02:11:18.600Z,34.70
2019-02-23T02:14:04.818Z,34.70
2019-02-23T02:16:51.065Z,34.70
2019-02-23T02:19:37.390Z,34.70
2019-02-23T02:22:23.876Z,34.70
2019-02-23T02:25:10.089Z,34.70
2019-02-23T02:27:56.449Z,34.70
2019-02-23T02:30:42.968Z,34.60
2019-02-23T02:33:29.341Z,34.70
2019-02-23T02:36:15.672Z,34.70
2019-02-23T02:39:02.767Z,34.70
2019-02-23T02:41:53.596Z,34.70
2019-02-23T02:44:39.592Z,34.70
2019-02-23T02:47:25.955Z,34.70
2019-02-23T02:50:23.915Z,34.60
2019-02-23T02:52:59.652Z,34.70
2019-02-23T02:55:46.104Z,34.60
2019-02-23T02:58:32.287Z,34.70
2019-02-23T03:01:18.515Z,34.60
2019-02-23T03:04:04.949Z,34.70
2019-02-23T03:06:51.160Z,34.70
2019-02-23T03:09:37.560Z,34.70
2019-02-23T03:12:24.005Z,34.60
2019-02-23T03:15:10.395Z,34.70
2019-02-23T03:17:56.503Z,34.60
2019-02-23T03:20:42.983Z,34.60
2019-02-23T03:23:29.403Z,34.60
2019-02-23T03:26:15.211Z,34.70
2019-02-23T03:29:01.498Z,34.70
2019-02-23T03:31:47.849Z,34.70
2019-02-23T03:34:34.390Z,34.80
2019-02-23T03:37:20.703Z,34.70
2019-02-23T03:40:08.417Z,34.70
2019-02-23T03:42:54.316Z,34.80
2019-02-23T03:45:40.762Z,34.70
2019-02-23T03:48:26.981Z,34.70
2019-02-23T03:51:13.471Z,34.70
2019-02-23T03:53:59.309Z,34.70
2019-02-23T03:56:45.605Z,34.80
2019-02-23T03:59:32.116Z,34.70
2019-02-23T04:02:18.391Z,34.80
2019-02-23T04:05:04.858Z,34.80
2019-02-23T04:07:51.751Z,34.80
2019-02-23T04:10:37.996Z,34.80
2019-02-23T04:13:24.399Z,34.80
2019-02-23T04:16:10.761Z,34.80
2019-02-23T04:18:56.824Z,34.80
2019-02-23T04:21:43.182Z,34.90
2019-02-23T04:24:29.519Z,34.80
2019-02-23T04:27:15.872Z,34.90
2019-02-23T04:30:01.909Z,34.90
2019-02-23T04:32:50.360Z,34.80
2019-02-23T04:35:36.827Z,34.90
2019-02-23T04:38:23.184Z,34.90
2019-02-23T04:41:10.243Z,34.90
2019-02-23T04:43:56.554Z,34.90
2019-02-23T04:46:43.008Z,34.90
2019-02-23T04:49:29.315Z,34.90
2019-02-23T04:52:15.597Z,35.00
2019-02-23T04:55:01.925Z,35.00
2019-02-23T04:57:49.349Z,35.00
2019-02-23T05:00:35.669Z,35.00
2019-02-23T05:03:22.108Z,35.00
2019-02-23T05:06:08.331Z,35.00
2019-02-23T05:08:54.579Z,35.00
2019-02-23T05:11:40.470Z,35.00
2019-02-23T05:14:26.743Z,35.10
2019-02-23T05:17:13.077Z,35.00
2019-02-23T05:19:59.528Z,35.00
2019-02-23T05:22:45.701Z,35.00
2019-02-23T05:25:32.140Z,35.10
2019-02-23T05:28:18.511Z,35.10
2019-02-23T05:31:04.864Z,35.00
2019-02-23T05:33:51.099Z,35.00
2019-02-23T05:36:37.540Z,35.00
2019-02-23T05:39:23.849Z,35.00
2019-02-23T05:42:10.296Z,35.00
2019-02-23T05:44:56.404Z,35.10
2019-02-23T05:47:42.788Z,35.10
2019-02-23T05:50:29.626Z,35.00
2019-02-23T05:53:15.677Z,35.10
2019-02-23T05:56:02.095Z,35.00
2019-02-23T05:58:48.547Z,35.10
2019-02-23T06:01:34.790Z,35.10
2019-02-23T06:04:21.204Z,35.10
2019-02-23T06:07:07.552Z,35.10
2019-02-23T06:09:53.868Z,35.00
2019-02-23T06:12:40.088Z,35.00
2019-02-23T06:15:26.503Z,35.00
2019-02-23T06:18:12.735Z,35.00
2019-02-23T06:20:59.688Z,34.90
2019-02-23T06:23:45.836Z,35.00
2019-02-23T06:26:31.728Z,35.00
2019-02-23T06:29:19.843Z,34.90
2019-02-23T06:32:05.961Z,34.90
2019-02-23T06:34:52.249Z,34.90
2019-02-23T06:37:38.285Z,34.90
2019-02-23T06:40:24.476Z,34.90
2019-02-23T06:43:10.832Z,34.90
2019-02-23T06:45:56.727Z,34.80
2019-02-23T06:48:43.096Z,35.20
2019-02-23T06:51:29.403Z,34.70
2019-02-23T06:54:15.922Z,34.50
2019-02-23T06:57:02.128Z,34.50
2019-02-23T06:59:48.417Z,34.40
2019-02-23T07:02:34.910Z,34.30
2019-02-23T07:05:21.277Z,34.10
2019-02-23T07:08:07.516Z,34.10
2019-02-23T07:10:54.128Z,34.00
2019-02-23T07:13:40.479Z,33.90
2019-02-23T07:16:26.393Z,33.90
2019-02-23T07:19:12.792Z,33.90
2019-02-23T07:21:58.776Z,34.00
2019-02-23T07:24:45.066Z,34.00
2019-02-23T07:27:31.257Z,34.00
2019-02-23T07:30:17.378Z,34.10
2019-02-23T07:33:03.859Z,34.10
2019-02-23T07:35:50.367Z,34.10
2019-02-23T07:38:36.632Z,34.00
2019-02-23T07:41:24.149Z,34.10
2019-02-23T07:44:10.339Z,34.10
2019-02-23T07:46:56.091Z,34.10
2019-02-23T07:49:42.566Z,34.10
2019-02-23T07:52:28.589Z,34.10
2019-02-23T07:55:14.963Z,34.20
2019-02-23T07:58:01.257Z,34.20
2019-02-23T08:00:47.503Z,34.30
2019-02-23T08:03:34.056Z,34.20
2019-02-23T08:06:20.746Z,34.30
2019-02-23T08:09:08.857Z,34.00
2019-02-23T08:11:54.954Z,33.60
2019-02-23T08:14:44.201Z,33.30
2019-02-23T08:17:31.564Z,32.80
2019-02-23T08:20:17.931Z,32.50
2019-02-23T08:23:04.178Z,32.60
2019-02-23T08:25:50.392Z,32.50
2019-02-23T08:28:36.826Z,32.60
2019-02-23T08:31:23.308Z,32.70
2019-02-23T08:34:09.607Z,32.70
2019-02-23T08:36:55.932Z,32.40
2019-02-23T08:39:42.520Z,32.20
2019-02-23T08:42:28.812Z,32.00
2019-02-23T08:45:15.358Z,31.80
2019-02-23T08:48:01.684Z,31.50
2019-02-23T08:50:48.090Z,31.30
2019-02-23T08:53:34.396Z,31.20
2019-02-23T08:56:20.655Z,31.00
2019-02-23T08:59:06.407Z,30.80
2019-02-23T09:01:52.315Z,30.60
2019-02-23T09:04:38.436Z,30.50
2019-02-23T09:07:24.416Z,30.50
2019-02-23T09:10:11.040Z,30.40
2019-02-23T09:12:58.180Z,30.30
2019-02-23T09:15:44.407Z,30.30
2019-02-23T09:18:30.918Z,30.20
2019-02-23T09:21:17.324Z,30.30
2019-02-23T09:24:03.684Z,30.30
2019-02-23T09:26:51.060Z,30.30
2019-02-23T09:29:37.026Z,30.20
2019-02-23T09:32:23.311Z,30.10
2019-02-23T09:35:09.843Z,30.10
2019-02-23T09:37:56.079Z,30.20
2019-02-23T09:40:42.384Z,30.20
2019-02-23T09:43:28.609Z,30.20
2019-02-23T09:46:14.980Z,30.20
2019-02-23T09:49:01.363Z,30.10
2019-02-23T09:51:47.594Z,30.10
2019-02-23T09:54:33.938Z,30.00
2019-02-23T09:57:20.563Z,30.20
2019-02-23T10:00:07.764Z,30.20
2019-02-23T10:02:54.193Z,30.20
2019-02-23T10:05:40.543Z,30.20
2019-02-23T10:08:26.444Z,30.30
2019-02-23T10:11:12.764Z,30.30
2019-02-23T10:13:59.311Z,30.30
2019-02-23T10:16:45.554Z,30.40
2019-02-23T10:19:31.975Z,30.40
2019-02-23T10:22:18.516Z,30.40
2019-02-23T10:25:04.898Z,30.50
2019-02-23T10:27:51.667Z,30.50
2019-02-23T10:30:38.203Z,30.60
2019-02-23T10:33:24.457Z,30.60
2019-02-23T10:36:10.912Z,30.70
2019-02-23T10:38:58.372Z,30.80
2019-02-23T10:41:44.776Z,30.90
2019-02-23T10:44:31.096Z,31.00
2019-02-23T10:47:17.451Z,31.00
2019-02-23T10:50:04.363Z,31.10
2019-02-23T10:52:50.732Z,31.10
2019-02-23T10:55:36.962Z,31.20
2019-02-23T10:58:23.268Z,31.30
2019-02-23T11:01:09.320Z,31.40
2019-02-23T11:03:55.676Z,31.40
2019-02-23T11:06:41.891Z,31.50
2019-02-23T11:09:33.095Z,31.60
2019-02-23T11:12:19.191Z,31.80
2019-02-23T11:15:06.216Z,31.70
2019-02-23T11:17:52.414Z,32.00
2019-02-23T11:20:39.595Z,32.30
2019-02-23T11:23:25.723Z,32.00
2019-02-23T11:26:12.054Z,32.10
2019-02-23T11:28:58.432Z,32.10
2019-02-23T11:31:44.594Z,32.40
2019-02-23T11:34:30.545Z,32.20
2019-02-23T11:37:17.276Z,32.20
2019-02-23T11:40:03.883Z,32.30
2019-02-23T11:42:50.084Z,32.40
2019-02-23T11:45:36.492Z,32.40
2019-02-23T11:48:22.682Z,32.40
2019-02-23T11:51:08.762Z,32.50
2019-02-23T11:53:55.450Z,32.60
2019-02-23T11:56:41.883Z,32.50
2019-02-23T11:59:28.296Z,32.60
2019-02-23T12:02:14.576Z,32.70
2019-02-23T12:05:00.484Z,32.70
2019-02-23T12:07:46.867Z,32.80
2019-02-23T12:10:33.093Z,32.80
2019-02-23T12:13:19.452Z,32.80
2019-02-23T12:16:06.023Z,32.80
2019-02-23T12:18:52.305Z,32.90
2019-02-23T12:21:38.568Z,32.90
2019-02-23T12:24:25.029Z,32.90
2019-02-23T12:27:11.939Z,33.00
2019-02-23T12:29:57.933Z,33.00
2019-02-23T12:32:45.287Z,33.00
2019-02-23T12:35:31.543Z,33.10
2019-02-23T12:38:17.575Z,33.10
2019-02-23T12:41:03.803Z,33.20
2019-02-23T12:43:50.096Z,33.20
2019-02-23T12:46:35.999Z,33.30
2019-02-23T12:49:22.487Z,33.30
2019-02-23T12:52:08.807Z,33.20
2019-02-23T12:54:55.380Z,33.30
2019-02-23T12:57:41.578Z,33.30
2019-02-23T13:00:28.253Z,33.30
2019-02-23T13:03:14.669Z,33.40
2019-02-23T13:06:01.015Z,33.50
2019-02-23T13:09:11.041Z,33.50
2019-02-23T13:12:45.740Z,33.50
2019-02-23T13:16:02.364Z,33.40
2019-02-23T13:19:17.040Z,33.50
2019-02-23T13:22:40.823Z,33.50
2019-02-23T13:25:38.199Z,33.50
2019-02-23T13:28:53.300Z,33.60
2019-02-23T13:32:24.191Z,33.50
2019-02-23T13:35:51.097Z,33.60
2019-02-23T13:39:05.060Z,33.60
2019-02-23T13:42:22.123Z,33.70
2019-02-23T13:45:47.001Z,33.70
2019-02-23T13:48:51.551Z,33.80
2019-02-23T13:52:18.236Z,33.70
2019-02-23T13:55:42.159Z,33.80
2019-02-23T13:58:39.741Z,33.80
2019-02-23T14:02:08.281Z,33.80
2019-02-23T14:05:20.250Z,33.80
2019-02-23T14:08:56.971Z,33.80
2019-02-23T14:12:06.537Z,33.90
2019-02-23T14:15:07.196Z,33.80
2019-02-23T14:18:13.407Z,33.80
2019-02-23T14:21:46.916Z,33.80
2019-02-23T14:24:50.059Z,33.90
2019-02-23T14:27:58.583Z,34.00
2019-02-23T14:31:45.324Z,34.00
2019-02-23T14:35:00.625Z,34.00
2019-02-23T14:38:40.026Z,34.10
2019-02-23T14:42:17.136Z,34.10
2019-02-23T14:45:33.262Z,34.20
2019-02-23T14:48:46.043Z,34.20
2019-02-23T14:52:18.161Z,34.30
2019-02-23T14:55:40.235Z,34.20
2019-02-23T14:58:55.446Z,34.30
2019-02-23T15:02:10.712Z,34.40
2019-02-23T15:05:46.939Z,34.40
2019-02-23T15:09:17.331Z,34.40
2019-02-23T15:12:36.983Z,34.40
2019-02-23T15:16:05.007Z,34.40
2019-02-23T15:19:15.295Z,34.40
2019-02-23T15:22:40.887Z,34.40
2019-02-23T15:25:54.912Z,34.40
2019-02-23T15:29:28.152Z,34.40
2019-02-23T15:32:56.596Z,34.40
2019-02-23T15:36:24.140Z,34.40
2019-02-23T15:39:46.771Z,34.40
2019-02-23T15:43:00.624Z,34.50
2019-02-23T15:46:20.003Z,34.50
2019-02-23T15:49:28.966Z,34.50
2019-02-23T15:52:15.331Z,34.50
2019-02-23T15:55:01.486Z,34.50
2019-02-23T15:57:47.960Z,34.60
2019-02-23T16:00:35.110Z,34.70
2019-02-23T16:03:21.035Z,34.70
2019-02-23T16:06:07.508Z,34.70
2019-02-23T16:08:54.062Z,34.70
2019-02-23T16:11:40.276Z,34.70
2019-02-23T16:14:26.684Z,34.70
2019-02-23T16:17:12.994Z,34.70
2019-02-23T16:19:59.378Z,34.70
2019-02-23T16:22:45.752Z,35.00
2019-02-23T16:25:38.333Z,34.80
2019-02-23T16:28:19.814Z,34.70
2019-02-23T16:31:06.580Z,34.70
2019-02-23T16:33:52.936Z,34.80
2019-02-23T16:36:39.276Z,34.80
2019-02-23T16:39:25.017Z,34.90
2019-02-23T16:42:11.092Z,34.90
2019-02-23T16:44:57.423Z,34.90
2019-02-23T16:47:43.444Z,34.90
2019-02-23T16:50:29.652Z,34.90
2019-02-23T16:53:15.985Z,34.90
2019-02-23T16:56:02.417Z,34.90
2019-02-23T16:58:48.631Z,35.00
2019-02-23T17:01:34.990Z,34.90
2019-02-23T17:04:21.530Z,34.90
2019-02-23T17:07:07.826Z,34.90
2019-02-23T17:09:54.187Z,35.00
2019-02-23T17:12:40.003Z,35.00
2019-02-23T17:15:26.407Z,35.00
2019-02-23T17:18:12.840Z,35.00
2019-02-23T17:20:59.332Z,35.10
2019-02-23T17:23:48.743Z,35.10
2019-02-23T17:26:36.849Z,35.00
2019-02-23T17:29:23.185Z,35.00
2019-02-23T17:32:09.448Z,35.10
2019-02-23T17:34:55.713Z,35.10
2019-02-23T17:37:42.164Z,35.10
2019-02-23T17:40:28.371Z,35.20
2019-02-23T17:43:14.871Z,35.10
2019-02-23T17:46:01.281Z,35.10
2019-02-23T17:48:47.551Z,35.10
2019-02-23T17:51:33.591Z,35.20
2019-02-23T17:54:19.858Z,35.10
2019-02-23T17:57:06.044Z,35.20
2019-02-23T17:59:52.489Z,35.10
2019-02-23T18:02:38.657Z,35.10
2019-02-23T18:05:25.057Z,35.20
2019-02-23T18:08:11.564Z,35.20
2019-02-23T18:10:57.799Z,35.20
2019-02-23T18:13:45.167Z,35.20
2019-02-23T18:16:31.731Z,35.20
2019-02-23T18:19:18.061Z,35.10
2019-02-23T18:22:04.453Z,35.10
2019-02-23T18:24:50.876Z,35.10
2019-02-23T18:27:37.177Z,35.10
2019-02-23T18:30:23.092Z,35.20
2019-02-23T18:33:09.531Z,35.20
2019-02-23T18:35:58.680Z,35.20
2019-02-23T18:38:44.864Z,35.20
2019-02-23T18:41:31.422Z,35.20
2019-02-23T18:44:17.649Z,35.20
2019-02-23T18:47:04.897Z,35.20
2019-02-23T18:49:51.448Z,35.20
2019-02-23T18:52:37.779Z,35.10
2019-02-23T18:55:24.197Z,35.20
2019-02-23T18:58:10.678Z,35.20
2019-02-23T19:00:57.049Z,35.20
2019-02-23T19:03:43.287Z,35.20
2019-02-23T19:06:29.799Z,35.30
2019-02-23T19:09:16.051Z,35.30
2019-02-23T19:12:02.420Z,35.30
2019-02-23T19:14:49.839Z,35.20
2019-02-23T19:17:36.140Z,35.40
2019-02-23T19:20:22.326Z,35.20
2019-02-23T19:23:08.659Z,35.20
2019-02-23T19:25:54.959Z,35.30
2019-02-23T19:28:43.226Z,35.20
2019-02-23T19:31:29.097Z,35.20
2019-02-23T19:34:15.603Z,35.20
2019-02-23T19:37:01.996Z,35.20
2019-02-23T19:39:49.403Z,35.20
2019-02-23T19:42:35.175Z,35.20
2019-02-23T19:45:21.536Z,35.20
2019-02-23T19:48:07.983Z,35.20
2019-02-23T19:50:58.272Z,35.20
2019-02-23T19:53:44.368Z,35.20
2019-02-23T19:56:30.795Z,35.20
2019-02-23T19:59:16.624Z,35.20
2019-02-23T20:02:03.931Z,35.20
2019-02-23T20:04:50.372Z,35.20
2019-02-23T20:07:36.215Z,35.20
2019-02-23T20:10:22.091Z,35.30
2019-02-23T20:13:07.961Z,35.30
2019-02-23T20:15:54.300Z,35.20
2019-02-23T20:18:40.629Z,35.20
2019-02-23T20:21:26.967Z,35.20
2019-02-23T20:24:13.565Z,35.30
2019-02-23T20:26:59.867Z,35.20
2019-02-23T20:29:46.148Z,35.90
2019-02-23T20:32:32.477Z,35.20
2019-02-23T20:35:19.046Z,35.20
2019-02-23T20:38:06.211Z,35.20
2019-02-23T20:40:53.719Z,35.30
2019-02-23T20:43:40.101Z,35.30
2019-02-23T20:46:26.412Z,35.40
2019-02-23T20:49:13.728Z,35.30
2019-02-23T20:52:00.510Z,35.20
2019-02-23T20:54:46.860Z,35.20
2019-02-23T20:57:33.196Z,35.20
2019-02-23T21:00:19.535Z,35.20
2019-02-23T21:03:05.761Z,35.20
2019-02-23T21:05:51.953Z,35.10
2019-02-23T21:08:38.623Z,35.10
2019-02-23T21:11:24.872Z,35.00
2019-02-23T21:14:10.700Z,35.10
2019-02-23T21:16:57.152Z,35.70
2019-02-23T21:19:43.577Z,35.00
2019-02-23T21:22:29.843Z,35.10
2019-02-23T21:25:16.310Z,35.00
2019-02-23T21:28:02.529Z,35.00
2019-02-23T21:30:48.908Z,35.00
2019-02-23T21:33:35.206Z,35.70
2019-02-23T21:36:21.712Z,35.10
2019-02-23T21:39:08.500Z,35.10
2019-02-23T21:41:56.075Z,35.10
2019-02-23T21:44:42.331Z,35.10
2019-02-23T21:47:29.276Z,35.00
2019-02-23T21:50:15.596Z,35.00
2019-02-23T21:53:02.025Z,35.10
2019-02-23T21:55:49.458Z,35.10
2019-02-23T21:58:35.968Z,35.00
2019-02-23T22:01:22.141Z,35.00
2019-02-23T22:04:11.730Z,35.00
2019-02-23T22:06:58.257Z,35.00
2019-02-23T22:09:44.784Z,35.00
2019-02-23T22:12:31.097Z,35.00
2019-02-23T22:15:17.633Z,35.00
2019-02-23T22:18:03.829Z,35.10
2019-02-23T22:20:50.112Z,35.00
2019-02-23T22:23:36.524Z,35.00
2019-02-23T22:26:22.661Z,35.10
2019-02-23T22:29:08.733Z,35.00
2019-02-23T22:31:55.078Z,35.00
2019-02-23T22:34:41.308Z,35.00
2019-02-23T22:37:27.796Z,35.00
2019-02-23T22:40:14.108Z,35.10
2019-02-23T22:43:00.435Z,35.10
2019-02-23T22:45:46.787Z,35.00
2019-02-23T22:48:33.175Z,35.10
2019-02-23T22:51:19.440Z,35.10
2019-02-23T22:54:06.155Z,35.10
2019-02-23T22:56:52.349Z,35.00
2019-02-23T22:59:39.124Z,35.10
2019-02-23T23:02:25.487Z,35.00
2019-02-23T23:05:12.063Z,35.00
2019-02-23T23:07:58.359Z,35.00
2019-02-23T23:10:44.807Z,35.40
2019-02-23T23:13:30.988Z,35.00
2019-02-23T23:16:17.418Z,35.00
2019-02-23T23:19:03.778Z,35.10
2019-02-23T23:21:50.243Z,35.70
2019-02-23T23:24:36.004Z,35.10
2019-02-23T23:27:23.302Z,35.10
2019-02-23T23:30:09.712Z,35.10
2019-02-23T23:32:56.201Z,35.10
2019-02-23T23:35:42.506Z,35.00
2019-02-23T23:38:28.766Z,35.10
2019-02-23T23:41:15.148Z,35.20
2019-02-23T23:44:01.547Z,35.20
2019-02-23T23:46:47.908Z,35.20
2019-02-23T23:49:34.519Z,35.00
2019-02-23T23:52:20.768Z,35.00
2019-02-23T23:55:07.077Z,35.00
2019-02-23T23:57:58.402Z,35.00
